Waukegan, IL

3:47 PM CDT on March 29, 2015 (GMT -0500)
Kenosha Regional | | Change Station
CLOSE
Current Station
Airport
Location: Kenosha,
Elevation: 741 ft
Nearby Weather Stations

Elev 741 ft 42.60 °N, 87.94 °W | Updated 54 minutes ago

Overcast
Overcast
37 °F
Feels Like 27 °F
N
18
Wind Variable Wind from SW
Gusts 31 mph

Today
High -- | Low -- °F
--% Chance of Precip.
Yesterday
High -- | Low -- °F
Precip. -- in
6:39 AM 7:13 PM
Waxing Gibbous, 74% visible
Pressure 29.80 in
Visibility 10.0 miles
Clouds Overcast 2800 ft
Windchill 27 °F
Dew Point 30 °F
Humidity 76%
Rainfall 0.02 in
Snow Depth Not available.
UV 2 out of 12
Pollen 3.90 out of 12
Air Quality Not available.
Flu Activity Not available.
METAR KENW 291953Z 22016G27KT 10SM OVC028 03/M01 A2977 RMK AO2 PK WND 20032/1933 SLP089 T00281011

More Conditions Fewer Conditions

Pressure 29.80 in
Visibility 10.0 miles
Clouds Overcast 2800 ft
Windchill 27 °F
Dew Point 30 °F
Humidity 76%
Rainfall 0.02 in
Snow Depth Not available.
UV 2 out of 12
Pollen 3.90 out of 12
Air Quality Not available.
Flu Activity Not available.
METAR KENW 291953Z 22016G27KT 10SM OVC028 03/M01 A2977 RMK AO2 PK WND 20032/1933 SLP089 T00281011

More Conditions Fewer Conditions

10-Day Weather Forecast

Almanac

Astronomy

Mar. 29, 2015 Rise Set
Actual Time
Civil Twilight
Nautical Twilight
Astronomical Twilight
Moon
Length of Visible Light
Length of Day
Tomorrow will be .
, % of the Moon is Illuminated

Today's Extremes

State Highs State Lows

Community

WunderPhotos

Upload Photos

1,809,347 photos uploaded!

WunderBlogs® & News

Nearby

Air Quality

  Air Quality AQ Index Pollutant
Not available.

Snow Depth

Station Depth Elevation

Earthquake Activity

City Distance Mag. Time & Date
Minimum magnitude displayed is 2.5.

Coastal Water Temperatures

Place Temperature

Stations

Nearby Weather Stations

Station Location Temp. Windchill Dew Point Humidity Wind Precip. Elev Updated Type